createdAt,value
2023-08-18T00:00:30.106Z,23.74
2023-08-18T00:01:32.297Z,23.69
2023-08-18T00:02:34.279Z,23.65
2023-08-18T00:03:36.200Z,23.72
2023-08-18T00:04:38.092Z,23.68
2023-08-18T00:05:39.922Z,23.63
2023-08-18T00:06:42.112Z,23.61
2023-08-18T00:07:44.049Z,23.58
2023-08-18T00:08:45.850Z,23.61
2023-08-18T00:09:47.741Z,23.54
2023-08-18T00:10:49.658Z,23.53
2023-08-18T00:11:51.929Z,23.52
2023-08-18T00:12:53.758Z,23.60
2023-08-18T00:13:55.598Z,23.65
2023-08-18T00:14:57.568Z,23.63
2023-08-18T00:15:59.471Z,23.68
2023-08-18T00:17:01.751Z,23.60
2023-08-18T00:18:03.973Z,23.58
2023-08-18T00:19:05.789Z,23.58
2023-08-18T00:20:09.658Z,23.58
2023-08-18T00:21:11.633Z,23.45
2023-08-18T00:22:14.200Z,23.31
2023-08-18T00:23:16.070Z,23.28
2023-08-18T00:24:17.989Z,23.42
2023-08-18T00:25:19.823Z,23.41
2023-08-18T00:26:21.722Z,23.48
2023-08-18T00:27:24.341Z,23.57
2023-08-18T00:28:26.899Z,23.41
2023-08-18T00:29:28.793Z,23.42
2023-08-18T00:30:30.712Z,23.41
2023-08-18T00:31:32.635Z,23.42
2023-08-18T00:32:35.687Z,23.43
2023-08-18T00:33:37.614Z,23.42
2023-08-18T00:34:39.528Z,23.33
2023-08-18T00:35:41.382Z,23.23
2023-08-18T00:36:43.200Z,23.18
2023-08-18T00:37:46.054Z,23.22
2023-08-18T00:38:48.293Z,23.32
2023-08-18T00:39:50.127Z,23.40
2023-08-18T00:40:51.966Z,23.43
2023-08-18T00:41:53.843Z,23.36
2023-08-18T00:42:55.970Z,23.29
2023-08-18T00:44:00.183Z,23.29
2023-08-18T00:45:02.166Z,23.23
2023-08-18T00:46:04.577Z,23.20
2023-08-18T00:47:06.968Z,23.20
2023-08-18T00:48:09.968Z,23.24
2023-08-18T00:49:12.099Z,23.14
2023-08-18T00:50:14.787Z,23.15
2023-08-18T00:51:17.536Z,23.10
2023-08-18T00:52:19.548Z,23.18
2023-08-18T00:53:23.232Z,23.26
2023-08-18T00:54:28.302Z,23.25
2023-08-18T00:55:30.826Z,23.22
2023-08-18T00:56:33.507Z,23.26
2023-08-18T00:57:37.166Z,23.28
2023-08-18T00:58:39.813Z,23.12
2023-08-18T00:59:43.008Z,23.07
2023-08-18T01:00:46.394Z,22.95
2023-08-18T01:01:50.435Z,23.00
2023-08-18T01:02:53.189Z,23.05
2023-08-18T01:03:56.850Z,23.10
2023-08-18T01:05:03.853Z,23.11
2023-08-18T01:06:05.962Z,23.06
2023-08-18T01:07:07.808Z,23.01
2023-08-18T01:08:09.802Z,22.99
2023-08-18T01:09:12.081Z,22.97
2023-08-18T01:10:14.958Z,23.01
2023-08-18T01:11:26.760Z,23.04
2023-08-18T01:12:28.578Z,23.00
2023-08-18T01:13:55.735Z,23.05
2023-08-18T01:15:41.211Z,23.12
2023-08-18T01:16:49.865Z,23.01
2023-08-18T01:17:54.174Z,23.05
2023-08-18T01:18:56.596Z,23.01
2023-08-18T01:20:00.653Z,23.02
2023-08-18T01:21:05.091Z,23.06
2023-08-18T01:22:13.132Z,22.99
2023-08-18T01:23:15.289Z,22.93
2023-08-18T01:24:17.155Z,23.03
2023-08-18T01:25:19.833Z,22.95
2023-08-18T01:26:21.703Z,22.97
2023-08-18T01:27:24.114Z,23.00
2023-08-18T01:28:26.010Z,22.93
2023-08-18T01:29:28.951Z,23.03
2023-08-18T01:30:46.933Z,22.98
2023-08-18T01:31:54.963Z,22.98
2023-08-18T01:33:02.857Z,22.91
2023-08-18T01:34:11.142Z,22.78
2023-08-18T01:35:13.703Z,22.85
2023-08-18T01:36:22.314Z,22.89
2023-08-18T01:37:24.936Z,22.91
2023-08-18T01:38:29.277Z,22.80
2023-08-18T01:39:32.921Z,22.85
2023-08-18T01:40:37.907Z,22.85
2023-08-18T01:41:41.535Z,22.79
2023-08-18T01:42:43.669Z,22.73
2023-08-18T01:43:45.797Z,22.82
2023-08-18T01:44:47.771Z,22.74
2023-08-18T01:45:50.048Z,22.76
2023-08-18T01:46:52.248Z,22.66
2023-08-18T01:47:54.234Z,22.56
2023-08-18T01:48:56.322Z,22.59
2023-08-18T01:49:58.313Z,22.57
2023-08-18T01:51:00.188Z,22.52
2023-08-18T01:52:02.367Z,22.62
2023-08-18T01:53:04.549Z,22.69
2023-08-18T01:54:06.510Z,22.63
2023-08-18T01:55:09.199Z,22.82
2023-08-18T01:56:12.099Z,22.66
2023-08-18T01:57:14.244Z,22.59
2023-08-18T01:58:16.154Z,22.60
2023-08-18T01:59:18.154Z,22.61
2023-08-18T02:00:21.020Z,22.61
2023-08-18T02:01:24.065Z,22.63
2023-08-18T02:02:25.934Z,22.78
2023-08-18T02:03:28.638Z,22.76
2023-08-18T02:04:30.667Z,22.75
2023-08-18T02:05:32.641Z,22.82
2023-08-18T02:06:35.500Z,22.86
2023-08-18T02:07:38.520Z,22.89
2023-08-18T02:08:40.445Z,22.97
2023-08-18T02:09:42.384Z,23.01
2023-08-18T02:10:44.903Z,23.03
2023-08-18T02:11:47.009Z,23.05
2023-08-18T02:12:48.892Z,23.12
2023-08-18T02:13:50.773Z,23.27
2023-08-18T02:14:52.911Z,23.15
2023-08-18T02:15:54.979Z,23.23
2023-08-18T02:16:58.173Z,23.28
2023-08-18T02:18:00.035Z,23.21
2023-08-18T02:19:01.906Z,23.05
2023-08-18T02:20:05.281Z,23.06
2023-08-18T02:21:07.267Z,23.12
2023-08-18T02:22:09.457Z,23.10
2023-08-18T02:23:11.409Z,22.99
2023-08-18T02:24:13.366Z,23.09
2023-08-18T02:25:15.383Z,23.09
2023-08-18T02:26:17.399Z,23.10
2023-08-18T02:27:19.680Z,23.17
2023-08-18T02:28:21.531Z,23.11
2023-08-18T02:29:23.542Z,23.17
2023-08-18T02:30:25.466Z,23.01
2023-08-18T02:31:27.395Z,23.07
2023-08-18T02:32:29.622Z,23.15
2023-08-18T02:33:32.276Z,23.23
2023-08-18T02:34:34.147Z,23.24
2023-08-18T02:35:35.994Z,23.15
2023-08-18T02:36:37.880Z,23.18
2023-08-18T02:37:40.041Z,23.12
2023-08-18T02:38:41.887Z,23.08
2023-08-18T02:39:43.753Z,23.19
2023-08-18T02:40:45.676Z,23.32
2023-08-18T02:41:48.588Z,23.20
2023-08-18T02:42:50.731Z,23.16
2023-08-18T02:43:52.644Z,23.23
2023-08-18T02:44:54.469Z,23.08
2023-08-18T02:46:01.297Z,23.09
2023-08-18T02:47:03.264Z,23.04
2023-08-18T02:48:05.753Z,22.99
2023-08-18T02:49:07.610Z,22.99
2023-08-18T02:50:10.931Z,23.04
2023-08-18T02:51:12.821Z,23.06
2023-08-18T02:52:14.781Z,23.05
2023-08-18T02:53:17.150Z,23.02
2023-08-18T02:54:19.079Z,23.01
2023-08-18T02:55:20.981Z,23.17
2023-08-18T02:56:22.872Z,23.15
2023-08-18T02:57:24.800Z,23.14
2023-08-18T02:58:28.819Z,23.05
2023-08-18T02:59:30.761Z,23.03
2023-08-18T03:00:35.168Z,22.93
2023-08-18T03:01:37.053Z,22.88
2023-08-18T03:02:39.042Z,22.91
2023-08-18T03:03:41.260Z,22.90
2023-08-18T03:04:43.707Z,22.95
2023-08-18T03:05:47.007Z,22.94
2023-08-18T03:06:48.912Z,22.95
2023-08-18T03:07:50.769Z,22.92
2023-08-18T03:08:53.006Z,22.92
2023-08-18T03:09:54.843Z,22.85
2023-08-18T03:11:01.824Z,22.90
2023-08-18T03:12:03.846Z,22.99
2023-08-18T03:13:05.913Z,22.88
2023-08-18T03:14:09.139Z,22.85
2023-08-18T03:15:11.140Z,22.86
2023-08-18T03:16:13.034Z,22.84
2023-08-18T03:17:15.005Z,22.76
2023-08-18T03:18:17.000Z,22.83
2023-08-18T03:19:19.426Z,22.84
2023-08-18T03:20:21.337Z,22.84
2023-08-18T03:21:23.239Z,22.87
2023-08-18T03:22:25.242Z,23.01
2023-08-18T03:23:27.822Z,22.93
2023-08-18T03:24:29.935Z,22.87
2023-08-18T03:25:31.876Z,22.94
2023-08-18T03:26:33.799Z,22.87
2023-08-18T03:27:35.693Z,22.84
2023-08-18T03:28:38.535Z,22.86
2023-08-18T03:29:41.308Z,22.78
2023-08-18T03:30:43.201Z,22.90
2023-08-18T03:31:45.133Z,22.89
2023-08-18T03:32:48.868Z,22.96
2023-08-18T03:33:50.813Z,22.91
2023-08-18T03:34:55.442Z,22.91
2023-08-18T03:35:58.193Z,23.02
2023-08-18T03:37:00.107Z,23.02
2023-08-18T03:38:04.069Z,22.95
2023-08-18T03:39:06.566Z,22.94
2023-08-18T03:40:09.263Z,22.94
2023-08-18T03:41:11.670Z,22.80
2023-08-18T03:42:13.970Z,22.71
2023-08-18T03:43:15.935Z,22.65
2023-08-18T03:44:17.779Z,22.69
2023-08-18T03:45:19.991Z,22.75
2023-08-18T03:46:24.321Z,22.74
2023-08-18T03:47:26.959Z,22.76
2023-08-18T03:48:29.433Z,22.67
2023-08-18T03:49:33.229Z,22.64
2023-08-18T03:50:38.658Z,22.65
2023-08-18T03:51:40.581Z,22.67
2023-08-18T03:52:42.748Z,22.66
2023-08-18T03:53:45.427Z,22.74
2023-08-18T03:54:47.781Z,22.70
2023-08-18T03:55:57.125Z,22.72
2023-08-18T03:56:58.974Z,22.68
2023-08-18T03:58:00.935Z,22.72
2023-08-18T03:59:02.967Z,22.68
2023-08-18T04:00:05.083Z,22.74
2023-08-18T04:01:15.701Z,22.69
2023-08-18T04:02:18.083Z,22.71
2023-08-18T04:03:19.985Z,22.80
2023-08-18T04:04:22.044Z,22.74
2023-08-18T04:05:23.947Z,22.68
2023-08-18T04:06:25.900Z,22.72
2023-08-18T04:07:28.205Z,22.68
2023-08-18T04:08:33.912Z,22.64
2023-08-18T04:09:35.777Z,22.62
2023-08-18T04:10:37.621Z,22.46
2023-08-18T04:11:39.468Z,22.50
2023-08-18T04:12:41.605Z,22.44
2023-08-18T04:13:44.790Z,22.45
2023-08-18T04:14:46.734Z,22.55
2023-08-18T04:15:48.672Z,22.58
2023-08-18T04:16:51.432Z,22.55
2023-08-18T04:17:53.816Z,22.66
2023-08-18T04:18:55.784Z,22.52
2023-08-18T04:19:58.183Z,22.56
2023-08-18T04:21:00.591Z,22.77
2023-08-18T04:22:04.535Z,22.74
2023-08-18T04:23:07.020Z,22.71
2023-08-18T04:24:09.037Z,22.64
2023-08-18T04:25:12.053Z,22.62
2023-08-18T04:26:14.321Z,22.51
2023-08-18T04:27:16.781Z,22.40
2023-08-18T04:28:19.006Z,22.43
2023-08-18T04:29:20.893Z,22.38
2023-08-18T04:30:23.382Z,22.39
2023-08-18T04:31:25.363Z,22.37
2023-08-18T04:32:27.786Z,22.36
2023-08-18T04:33:30.173Z,22.41
2023-08-18T04:34:33.345Z,22.45
2023-08-18T04:35:35.642Z,22.36
2023-08-18T04:36:38.656Z,22.41
2023-08-18T04:37:41.366Z,22.45
2023-08-18T04:38:45.904Z,22.39
2023-08-18T04:39:48.324Z,22.39
2023-08-18T04:41:03.630Z,22.37
2023-08-18T04:42:05.712Z,22.43
2023-08-18T04:43:08.912Z,22.38
2023-08-18T04:44:11.141Z,22.41
2023-08-18T04:45:13.841Z,22.53
2023-08-18T04:46:15.756Z,22.59
2023-08-18T04:47:19.208Z,22.51
2023-08-18T04:48:22.336Z,22.52
2023-08-18T04:49:24.469Z,22.52
2023-08-18T04:50:26.600Z,22.66
2023-08-18T04:51:29.372Z,22.65
2023-08-18T04:52:32.378Z,22.62
2023-08-18T04:53:34.932Z,22.64
2023-08-18T04:54:38.274Z,22.73
2023-08-18T04:55:40.339Z,22.71
2023-08-18T04:56:42.991Z,22.81
2023-08-18T04:57:44.883Z,22.92
2023-08-18T04:58:47.144Z,22.68
2023-08-18T04:59:49.676Z,22.67
2023-08-18T05:00:51.651Z,22.71
2023-08-18T05:01:54.004Z,22.66
2023-08-18T05:02:56.506Z,22.68
2023-08-18T05:03:58.607Z,22.75
2023-08-18T05:05:00.863Z,22.71
2023-08-18T05:06:08.852Z,22.76
2023-08-18T05:07:10.773Z,22.74
2023-08-18T05:08:12.634Z,22.80
2023-08-18T05:09:14.621Z,22.85
2023-08-18T05:10:16.793Z,22.85
2023-08-18T05:11:18.710Z,22.88
2023-08-18T05:12:21.629Z,22.88
2023-08-18T05:13:23.518Z,22.91
2023-08-18T05:14:25.350Z,22.96
2023-08-18T05:15:27.516Z,22.96
2023-08-18T05:16:29.431Z,22.97
2023-08-18T05:17:31.374Z,23.02
2023-08-18T05:18:34.715Z,23.08
2023-08-18T05:19:36.636Z,23.08
2023-08-18T05:20:38.781Z,23.09
2023-08-18T05:21:41.058Z,23.10
2023-08-18T05:22:42.898Z,23.11
2023-08-18T05:23:45.021Z,23.11
2023-08-18T05:24:46.993Z,23.18
2023-08-18T05:25:49.503Z,23.18
2023-08-18T05:26:51.405Z,23.12
2023-08-18T05:27:53.223Z,23.16
2023-08-18T05:28:55.024Z,23.16
2023-08-18T05:29:58.677Z,23.19
2023-08-18T05:31:01.038Z,23.16
2023-08-18T05:32:02.953Z,23.01
2023-08-18T05:33:05.102Z,23.05
2023-08-18T05:34:06.979Z,23.04
2023-08-18T05:35:11.247Z,23.14
2023-08-18T05:36:13.468Z,23.07
2023-08-18T05:37:15.309Z,23.14
2023-08-18T05:38:17.468Z,23.29
2023-08-18T05:39:19.345Z,23.34
2023-08-18T05:40:21.295Z,23.38
2023-08-18T05:41:23.542Z,23.33
2023-08-18T05:42:25.499Z,23.46
2023-08-18T05:43:27.329Z,23.48
2023-08-18T05:44:29.160Z,23.55
2023-08-18T05:45:31.006Z,23.57
2023-08-18T05:46:33.364Z,23.67
2023-08-18T05:47:35.318Z,23.73
2023-08-18T05:48:37.369Z,23.76
2023-08-18T05:49:39.251Z,23.73
2023-08-18T05:50:41.914Z,23.75
2023-08-18T05:51:45.455Z,23.74
2023-08-18T05:52:47.327Z,23.70
2023-08-18T05:53:49.203Z,23.89
2023-08-18T05:54:51.081Z,24.04
2023-08-18T05:55:53.748Z,24.19
2023-08-18T05:56:55.924Z,24.30
2023-08-18T05:58:03.854Z,24.35
2023-08-18T05:59:05.740Z,24.32
2023-08-18T06:00:08.445Z,24.54
2023-08-18T06:01:16.167Z,24.50
2023-08-18T06:02:18.379Z,24.63
2023-08-18T06:03:20.672Z,24.82
2023-08-18T06:04:22.495Z,25.02
2023-08-18T06:05:27.694Z,25.00
2023-08-18T06:06:29.660Z,25.13
2023-08-18T06:07:31.863Z,25.21
2023-08-18T06:08:33.976Z,25.35
2023-08-18T06:09:35.853Z,25.38
2023-08-18T06:10:37.723Z,25.43
2023-08-18T06:11:39.642Z,25.54
2023-08-18T06:12:41.842Z,25.62
2023-08-18T06:13:43.690Z,25.74
2023-08-18T06:14:45.540Z,25.92
2023-08-18T06:15:47.814Z,25.86
2023-08-18T06:16:49.655Z,25.95
2023-08-18T06:17:51.892Z,25.98
2023-08-18T06:18:53.810Z,26.08
2023-08-18T06:19:55.682Z,26.04
2023-08-18T06:20:57.686Z,26.04
2023-08-18T06:21:59.513Z,25.92
2023-08-18T06:23:01.832Z,25.93
2023-08-18T06:24:03.998Z,26.07
2023-08-18T06:25:08.225Z,26.15
2023-08-18T06:26:10.086Z,26.25
2023-08-18T06:27:11.961Z,26.36
2023-08-18T06:28:14.250Z,26.45
2023-08-18T06:29:16.091Z,26.53
2023-08-18T06:30:18.001Z,26.68
2023-08-18T06:31:19.890Z,26.63
2023-08-18T06:32:22.018Z,26.54
2023-08-18T06:33:24.166Z,26.37
2023-08-18T06:34:26.016Z,26.44
2023-08-18T06:35:27.915Z,26.39
2023-08-18T06:36:29.753Z,26.48
2023-08-18T06:37:31.631Z,26.54
2023-08-18T06:38:33.821Z,26.66
2023-08-18T06:39:35.680Z,26.69
2023-08-18T06:40:37.526Z,26.62
2023-08-18T06:41:40.926Z,26.62
2023-08-18T06:42:45.901Z,26.56
2023-08-18T06:43:48.050Z,26.61
2023-08-18T06:44:49.962Z,26.55
2023-08-18T06:45:51.954Z,26.76
2023-08-18T06:46:53.872Z,26.82
2023-08-18T06:47:55.741Z,26.92
2023-08-18T06:48:57.902Z,26.91
2023-08-18T06:50:01.076Z,26.83
2023-08-18T06:51:02.973Z,26.92
2023-08-18T06:52:05.072Z,26.62
2023-08-18T06:53:06.945Z,26.49
2023-08-18T06:54:09.174Z,26.57
2023-08-18T06:55:15.235Z,26.55
2023-08-18T06:56:21.145Z,26.63
2023-08-18T06:57:23.644Z,26.81
2023-08-18T06:58:25.589Z,26.76
2023-08-18T06:59:27.970Z,26.72
2023-08-18T07:00:29.779Z,26.89
2023-08-18T07:01:31.721Z,26.88
2023-08-18T07:02:33.888Z,26.86
2023-08-18T07:03:36.148Z,26.81
2023-08-18T07:04:38.389Z,26.87
2023-08-18T07:05:40.483Z,26.84
2023-08-18T07:06:45.364Z,26.85
2023-08-18T07:07:47.734Z,26.74
2023-08-18T07:08:49.721Z,26.64
2023-08-18T07:09:51.910Z,26.57
2023-08-18T07:10:53.812Z,26.60
2023-08-18T07:11:55.720Z,26.50
2023-08-18T07:12:57.869Z,26.51
2023-08-18T07:13:59.769Z,26.49
2023-08-18T07:15:02.093Z,26.21
2023-08-18T07:16:04.105Z,26.04
2023-08-18T07:17:05.938Z,25.90
2023-08-18T07:18:09.559Z,25.84
2023-08-18T07:19:11.558Z,25.78
2023-08-18T07:20:13.896Z,25.72
2023-08-18T07:21:15.798Z,25.72
2023-08-18T07:22:17.674Z,25.86
2023-08-18T07:23:20.084Z,25.94
2023-08-18T07:24:22.027Z,25.92
2023-08-18T07:25:24.363Z,25.98
2023-08-18T07:26:26.944Z,25.90
2023-08-18T07:27:28.780Z,25.78
2023-08-18T07:28:30.789Z,25.73
2023-08-18T07:29:35.206Z,25.61
2023-08-18T07:30:37.708Z,25.49
2023-08-18T07:31:39.754Z,25.39
2023-08-18T07:32:41.669Z,25.35
2023-08-18T07:33:43.774Z,25.42
2023-08-18T07:34:46.487Z,25.55
2023-08-18T07:35:48.645Z,25.48
2023-08-18T07:36:50.494Z,25.36
2023-08-18T07:37:56.091Z,25.43
2023-08-18T07:38:58.329Z,25.46
2023-08-18T07:40:00.219Z,25.53
2023-08-18T07:41:03.306Z,25.43
2023-08-18T07:42:05.244Z,25.56
2023-08-18T07:43:08.239Z,25.59
2023-08-18T07:44:10.175Z,25.48
2023-08-18T07:45:12.337Z,25.47
2023-08-18T07:46:14.725Z,25.38
2023-08-18T07:47:16.686Z,25.33
2023-08-18T07:48:18.849Z,25.47
2023-08-18T07:49:20.771Z,25.56
2023-08-18T07:50:22.644Z,25.49
2023-08-18T07:51:25.009Z,25.41
2023-08-18T07:52:26.919Z,25.55
2023-08-18T07:53:28.832Z,25.52
2023-08-18T07:54:30.654Z,25.54
2023-08-18T07:55:32.524Z,25.60
2023-08-18T07:56:34.681Z,25.66
2023-08-18T07:57:38.553Z,25.63
2023-08-18T07:58:40.563Z,25.58
2023-08-18T07:59:43.117Z,25.61
2023-08-18T08:00:45.048Z,25.54
2023-08-18T08:01:47.294Z,25.50
2023-08-18T08:02:49.823Z,25.63
2023-08-18T08:03:51.827Z,25.60
2023-08-18T08:04:53.726Z,25.58
2023-08-18T08:05:55.714Z,25.58
2023-08-18T08:06:58.577Z,25.52
2023-08-18T08:08:00.653Z,25.58
2023-08-18T08:09:02.666Z,25.57
2023-08-18T08:10:05.764Z,25.58
2023-08-18T08:11:07.754Z,25.69
2023-08-18T08:12:09.936Z,25.73
2023-08-18T08:13:12.008Z,25.69
2023-08-18T08:14:13.875Z,25.61
2023-08-18T08:15:16.090Z,25.46
2023-08-18T08:16:18.042Z,25.52
2023-08-18T08:17:20.208Z,25.48
2023-08-18T08:18:22.072Z,25.34
2023-08-18T08:19:23.942Z,25.35
2023-08-18T08:20:30.271Z,25.34
2023-08-18T08:21:36.735Z,25.51
2023-08-18T08:22:43.315Z,25.44
2023-08-18T08:23:48.609Z,25.26
2023-08-18T08:24:53.203Z,25.19
2023-08-18T08:25:55.657Z,25.03
2023-08-18T08:26:57.927Z,25.09
2023-08-18T08:28:00.264Z,25.13
2023-08-18T08:29:02.317Z,25.14
2023-08-18T08:30:05.722Z,25.09
2023-08-18T08:31:07.625Z,25.21
2023-08-18T08:32:10.625Z,25.26
2023-08-18T08:33:16.965Z,25.28
2023-08-18T08:34:23.169Z,25.38
2023-08-18T08:35:28.716Z,25.35
2023-08-18T08:36:33.943Z,25.42
2023-08-18T08:37:38.961Z,25.52
2023-08-18T08:38:43.754Z,25.57
2023-08-18T08:39:47.452Z,25.68
2023-08-18T08:40:53.336Z,25.79
2023-08-18T08:41:58.590Z,25.84
2023-08-18T08:44:07.833Z,25.84
2023-08-18T08:45:12.954Z,25.95
2023-08-18T08:46:16.306Z,25.93
2023-08-18T08:47:19.772Z,25.84
2023-08-18T08:48:25.103Z,25.74
2023-08-18T08:49:30.292Z,25.74
2023-08-18T08:50:37.709Z,25.85
2023-08-18T08:51:42.792Z,25.93
2023-08-18T08:52:49.667Z,26.00
2023-08-18T08:53:56.050Z,26.05
2023-08-18T08:55:06.786Z,25.93
2023-08-18T08:56:10.072Z,25.99
2023-08-18T08:57:12.875Z,26.05
2023-08-18T08:58:15.161Z,26.15
2023-08-18T08:59:18.431Z,26.24
2023-08-18T09:00:21.664Z,26.27
2023-08-18T09:01:27.229Z,26.24
2023-08-18T09:02:29.378Z,26.31
2023-08-18T09:03:31.694Z,26.30
2023-08-18T09:04:33.725Z,26.32
2023-08-18T09:05:35.976Z,26.39
2023-08-18T09:06:43.354Z,26.42
2023-08-18T09:07:45.910Z,26.50
2023-08-18T09:08:47.775Z,26.46
2023-08-18T09:09:49.652Z,26.47
2023-08-18T09:10:52.048Z,26.40
2023-08-18T09:12:00.592Z,26.41
2023-08-18T09:13:02.488Z,26.40
2023-08-18T09:14:04.755Z,26.46
2023-08-18T09:16:14.916Z,26.50
2023-08-18T09:17:17.144Z,26.32
2023-08-18T09:18:20.508Z,26.27
2023-08-18T09:19:27.198Z,26.22
2023-08-18T09:20:30.343Z,26.27
2023-08-18T09:21:34.140Z,26.27
2023-08-18T09:22:36.065Z,26.22
2023-08-18T09:23:39.036Z,26.24
2023-08-18T09:24:40.860Z,26.04
2023-08-18T09:25:42.774Z,26.07
2023-08-18T09:26:46.002Z,26.08
2023-08-18T09:27:47.946Z,26.01
2023-08-18T09:28:49.814Z,26.15
2023-08-18T09:29:53.496Z,26.22
2023-08-18T09:30:55.481Z,26.25
2023-08-18T09:31:58.362Z,26.26
2023-08-18T09:33:05.046Z,26.27
2023-08-18T09:34:07.443Z,26.19
2023-08-18T09:35:13.334Z,26.29
2023-08-18T09:36:15.634Z,26.29
2023-08-18T09:37:24.515Z,26.42
2023-08-18T09:38:30.112Z,26.38
2023-08-18T09:39:39.253Z,26.45
2023-08-18T09:40:41.434Z,26.51
2023-08-18T09:41:57.698Z,26.36
2023-08-18T09:43:05.207Z,26.38
2023-08-18T09:44:07.646Z,26.17
2023-08-18T09:45:12.954Z,26.31
2023-08-18T09:46:17.386Z,26.31
2023-08-18T09:47:20.464Z,26.32
2023-08-18T09:48:27.234Z,26.36
2023-08-18T09:49:34.271Z,26.40
2023-08-18T09:50:37.149Z,26.38
2023-08-18T09:51:39.500Z,26.33
2023-08-18T09:52:43.584Z,26.28
2023-08-18T09:53:54.316Z,26.32
2023-08-18T09:55:27.379Z,26.43
2023-08-18T09:56:35.865Z,26.43
2023-08-18T09:57:55.958Z,26.44
2023-08-18T09:59:33.023Z,26.51
2023-08-18T10:00:37.345Z,26.53
2023-08-18T10:01:39.918Z,26.49
2023-08-18T10:02:44.922Z,26.39
2023-08-18T10:03:48.134Z,26.38
2023-08-18T10:04:51.511Z,26.41
2023-08-18T10:05:54.336Z,26.46
2023-08-18T10:06:57.015Z,26.54
2023-08-18T10:08:00.262Z,26.60
2023-08-18T10:09:02.656Z,26.53
2023-08-18T10:10:06.456Z,26.62
2023-08-18T10:11:09.903Z,26.65
2023-08-18T10:12:12.459Z,26.70
2023-08-18T10:13:14.965Z,26.84
2023-08-18T10:14:18.744Z,26.78
2023-08-18T10:15:22.011Z,26.73
2023-08-18T10:16:24.121Z,26.75
2023-08-18T10:17:26.433Z,26.81
2023-08-18T10:18:28.413Z,26.91
2023-08-18T10:20:02.203Z,27.00
2023-08-18T10:21:04.689Z,27.12
2023-08-18T10:22:08.058Z,26.94
2023-08-18T10:23:10.857Z,27.04
2023-08-18T10:24:12.742Z,27.00
2023-08-18T10:25:29.351Z,27.02
2023-08-18T10:26:35.302Z,27.08
2023-08-18T10:27:39.832Z,27.25
2023-08-18T10:28:41.942Z,27.31
2023-08-18T10:29:44.550Z,27.33
2023-08-18T10:31:11.790Z,27.35
2023-08-18T10:32:15.163Z,27.32
2023-08-18T10:33:28.742Z,27.19
2023-08-18T10:34:31.034Z,27.22
2023-08-18T10:35:33.028Z,27.23
2023-08-18T10:36:36.438Z,27.24
2023-08-18T10:37:38.278Z,27.13
2023-08-18T10:38:40.625Z,26.88
2023-08-18T10:39:43.090Z,26.98
2023-08-18T10:40:44.976Z,26.96
2023-08-18T10:42:08.848Z,27.01
2023-08-18T10:43:14.689Z,27.04
2023-08-18T10:44:16.572Z,26.90
2023-08-18T10:45:29.608Z,27.03
2023-08-18T10:46:38.475Z,27.15
2023-08-18T10:47:42.138Z,27.18
2023-08-18T10:48:44.618Z,27.25
2023-08-18T10:49:46.458Z,27.26
2023-08-18T10:50:48.627Z,27.34
2023-08-18T10:51:50.813Z,27.51
2023-08-18T10:52:53.397Z,27.77
2023-08-18T10:53:57.281Z,27.88
2023-08-18T10:55:00.638Z,27.92
2023-08-18T10:56:07.015Z,27.99
2023-08-18T10:57:08.884Z,28.22
2023-08-18T10:58:10.983Z,28.40
2023-08-18T10:59:12.902Z,28.54
2023-08-18T11:00:16.616Z,28.32
2023-08-18T11:01:21.831Z,28.28
2023-08-18T11:02:23.786Z,28.34
2023-08-18T11:03:26.952Z,28.63
2023-08-18T11:04:29.772Z,28.81
2023-08-18T11:05:32.718Z,28.89
2023-08-18T11:06:34.849Z,29.02
2023-08-18T11:07:37.096Z,29.16
2023-08-18T11:08:40.112Z,29.32
2023-08-18T11:09:42.032Z,29.32
2023-08-18T11:10:44.250Z,29.45
2023-08-18T11:11:46.446Z,29.45
2023-08-18T11:12:49.784Z,29.55
2023-08-18T11:13:52.020Z,29.49
2023-08-18T11:14:53.925Z,29.49
2023-08-18T11:15:57.590Z,29.53
2023-08-18T11:17:00.469Z,29.63
2023-08-18T11:18:02.446Z,29.60
2023-08-18T11:19:05.727Z,29.78
2023-08-18T11:20:08.903Z,29.79
2023-08-18T11:21:10.774Z,29.80
2023-08-18T11:22:12.940Z,29.72
2023-08-18T11:23:14.815Z,29.66
2023-08-18T11:24:19.569Z,29.80
2023-08-18T11:25:25.180Z,29.81
2023-08-18T11:26:27.156Z,29.89
2023-08-18T11:27:29.314Z,29.83
2023-08-18T11:28:31.447Z,29.95
2023-08-18T11:29:33.294Z,29.92
2023-08-18T11:30:35.995Z,30.13
2023-08-18T11:31:37.917Z,30.07
2023-08-18T11:32:40.926Z,30.06
2023-08-18T11:33:43.095Z,30.17
2023-08-18T11:34:45.335Z,30.11
2023-08-18T11:35:47.167Z,30.08
2023-08-18T11:36:48.998Z,30.08
2023-08-18T11:37:52.548Z,29.85
2023-08-18T11:39:00.370Z,29.64
2023-08-18T11:40:02.214Z,29.53
2023-08-18T11:41:04.341Z,29.61
2023-08-18T11:42:06.561Z,29.58
2023-08-18T11:43:12.569Z,29.49
2023-08-18T11:44:14.458Z,29.29
2023-08-18T11:45:18.275Z,29.29
2023-08-18T11:46:21.170Z,29.22
2023-08-18T11:47:23.025Z,29.29
2023-08-18T11:48:29.147Z,29.48
2023-08-18T11:49:31.120Z,29.62
2023-08-18T11:50:33.746Z,29.83
2023-08-18T11:51:35.707Z,29.85
2023-08-18T11:52:46.105Z,29.67
2023-08-18T11:53:48.225Z,29.61
2023-08-18T11:54:50.090Z,29.65
2023-08-18T11:55:52.741Z,29.66
2023-08-18T11:56:54.895Z,29.50
2023-08-18T11:57:56.780Z,29.14
2023-08-18T11:58:59.009Z,28.90
2023-08-18T12:00:00.917Z,28.87
2023-08-18T12:01:05.024Z,28.81
2023-08-18T12:02:08.019Z,28.76
2023-08-18T12:03:26.812Z,28.82
2023-08-18T12:04:31.339Z,28.80
2023-08-18T12:05:37.645Z,28.80
2023-08-18T12:06:40.280Z,28.77
2023-08-18T12:07:42.478Z,28.66
2023-08-18T12:08:44.351Z,28.72
2023-08-18T12:09:46.521Z,28.82
2023-08-18T12:10:51.464Z,28.77
2023-08-18T12:11:53.884Z,28.75
2023-08-18T12:12:57.943Z,28.55
2023-08-18T12:13:59.748Z,28.35
2023-08-18T12:15:01.757Z,28.44
2023-08-18T12:16:03.998Z,28.50
2023-08-18T12:17:06.054Z,28.49
2023-08-18T12:18:08.214Z,28.29
2023-08-18T12:19:10.272Z,28.35
2023-08-18T12:20:12.244Z,28.30
2023-08-18T12:21:14.108Z,28.24
2023-08-18T12:22:15.945Z,28.19
2023-08-18T12:23:18.165Z,28.14
2023-08-18T12:24:20.033Z,28.13
2023-08-18T12:25:23.891Z,28.02
2023-08-18T12:26:27.723Z,28.05
2023-08-18T12:27:30.504Z,28.11
2023-08-18T12:28:34.584Z,28.09
2023-08-18T12:29:36.497Z,28.13
2023-08-18T12:30:38.439Z,28.12
2023-08-18T12:31:40.332Z,28.30
2023-08-18T12:32:44.546Z,28.23
2023-08-18T12:33:46.831Z,28.30
2023-08-18T12:34:51.354Z,28.34
2023-08-18T12:35:53.317Z,28.34
2023-08-18T12:36:57.573Z,28.31
2023-08-18T12:37:59.568Z,28.33
2023-08-18T12:39:01.775Z,28.41
2023-08-18T12:40:06.824Z,28.37
2023-08-18T12:41:09.911Z,28.26
2023-08-18T12:42:11.799Z,28.23
2023-08-18T12:43:13.694Z,28.19
2023-08-18T12:44:15.862Z,28.03
2023-08-18T12:45:17.717Z,27.82
2023-08-18T12:46:19.664Z,27.75
2023-08-18T12:47:21.524Z,27.81
2023-08-18T12:48:23.524Z,27.84
2023-08-18T12:49:26.772Z,27.97
2023-08-18T12:50:28.678Z,27.66
2023-08-18T12:51:30.516Z,27.69
2023-08-18T12:52:32.692Z,27.86
2023-08-18T12:53:35.013Z,27.78
2023-08-18T12:54:37.251Z,27.81
2023-08-18T12:55:39.099Z,27.83
2023-08-18T12:56:40.941Z,28.01
2023-08-18T12:57:43.129Z,27.98
2023-08-18T12:58:45.006Z,27.85
2023-08-18T12:59:47.164Z,27.68
2023-08-18T13:00:49.107Z,27.62
2023-08-18T13:01:52.441Z,27.72
2023-08-18T13:02:54.271Z,27.66
2023-08-18T13:03:56.410Z,27.71
2023-08-18T13:04:58.580Z,27.69
2023-08-18T13:06:00.449Z,27.72
2023-08-18T13:07:03.218Z,27.72
2023-08-18T13:08:05.413Z,27.63
2023-08-18T13:09:07.312Z,27.76
2023-08-18T13:10:09.821Z,27.69
2023-08-18T13:11:14.416Z,27.55
2023-08-18T13:12:19.259Z,27.49
2023-08-18T13:13:21.633Z,27.44
2023-08-18T13:14:26.666Z,27.47
2023-08-18T13:15:30.675Z,27.49
2023-08-18T13:16:34.746Z,27.54
2023-08-18T13:17:39.789Z,27.47
2023-08-18T13:18:42.531Z,27.53
2023-08-18T13:19:48.923Z,27.49
2023-08-18T13:20:54.330Z,27.53
2023-08-18T13:21:58.981Z,27.47
2023-08-18T13:23:03.003Z,27.43
2023-08-18T13:24:06.297Z,27.49
2023-08-18T13:25:10.834Z,27.53
2023-08-18T13:26:13.719Z,27.54
2023-08-18T13:27:15.641Z,27.44
2023-08-18T13:28:18.121Z,27.57
2023-08-18T13:29:21.800Z,27.56
2023-08-18T13:30:25.655Z,27.44
2023-08-18T13:31:27.887Z,27.47
2023-08-18T13:32:30.095Z,27.54
2023-08-18T13:33:32.094Z,27.65
2023-08-18T13:34:34.007Z,27.60
2023-08-18T13:35:35.915Z,27.67
2023-08-18T13:36:40.721Z,27.66